sensor_id;sensor_type;location;lat;lon;timestamp;P1;durP1;ratioP1;P2;durP2;ratioP2
34775;SDS011;20989;52.566;13.346;2022-07-23T00:01:46;0.80;;;0.80;;
34775;SDS011;20989;52.566;13.346;2022-07-23T00:04:47;1.00;;;1.00;;
34775;SDS011;20989;52.566;13.346;2022-07-23T00:07:48;0.98;;;0.98;;
34775;SDS011;20989;52.566;13.346;2022-07-23T00:10:49;0.88;;;0.88;;
34775;SDS011;20989;52.566;13.346;2022-07-23T00:13:49;1.10;;;1.10;;
34775;SDS011;20989;52.566;13.346;2022-07-23T00:16:50;0.70;;;0.70;;
34775;SDS011;20989;52.566;13.346;2022-07-23T00:19:51;1.10;;;1.10;;
34775;SDS011;20989;52.566;13.346;2022-07-23T00:22:54;0.85;;;0.85;;
34775;SDS011;20989;52.566;13.346;2022-07-23T00:25:55;0.70;;;0.70;;
34775;SDS011;20989;52.566;13.346;2022-07-23T00:28:55;1.00;;;1.00;;
34775;SDS011;20989;52.566;13.346;2022-07-23T00:31:56;0.90;;;0.90;;
34775;SDS011;20989;52.566;13.346;2022-07-23T00:34:57;0.90;;;0.90;;
34775;SDS011;20989;52.566;13.346;2022-07-23T00:37:58;0.90;;;0.90;;
34775;SDS011;20989;52.566;13.346;2022-07-23T00:40:59;0.70;;;0.70;;
34775;SDS011;20989;52.566;13.346;2022-07-23T00:47:19;1.02;;;1.02;;
34775;SDS011;20989;52.566;13.346;2022-07-23T00:50:20;0.93;;;0.93;;
34775;SDS011;20989;52.566;13.346;2022-07-23T00:53:20;1.02;;;1.00;;
34775;SDS011;20989;52.566;13.346;2022-07-23T00:56:22;0.82;;;0.82;;
34775;SDS011;20989;52.566;13.346;2022-07-23T00:59:23;0.93;;;0.93;;
34775;SDS011;20989;52.566;13.346;2022-07-23T01:02:27;0.90;;;0.90;;
34775;SDS011;20989;52.566;13.346;2022-07-23T01:05:27;2.38;;;0.77;;
34775;SDS011;20989;52.566;13.346;2022-07-23T01:08:28;0.88;;;0.88;;
34775;SDS011;20989;52.566;13.346;2022-07-23T01:11:29;1.05;;;1.05;;
34775;SDS011;20989;52.566;13.346;2022-07-23T01:14:31;0.70;;;0.70;;
34775;SDS011;20989;52.566;13.346;2022-07-23T01:17:32;0.90;;;0.90;;
34775;SDS011;20989;52.566;13.346;2022-07-23T01:20:35;0.82;;;0.80;;
34775;SDS011;20989;52.566;13.346;2022-07-23T01:23:35;0.80;;;0.80;;
34775;SDS011;20989;52.566;13.346;2022-07-23T01:26:36;0.80;;;0.80;;
34775;SDS011;20989;52.566;13.346;2022-07-23T01:29:38;0.80;;;0.80;;
34775;SDS011;20989;52.566;13.346;2022-07-23T01:32:39;0.80;;;0.80;;
34775;SDS011;20989;52.566;13.346;2022-07-23T01:35:40;0.88;;;0.88;;
34775;SDS011;20989;52.566;13.346;2022-07-23T01:38:41;2.10;;;1.02;;
34775;SDS011;20989;52.566;13.346;2022-07-23T01:41:41;0.82;;;0.82;;
34775;SDS011;20989;52.566;13.346;2022-07-23T01:44:42;1.00;;;1.00;;
34775;SDS011;20989;52.566;13.346;2022-07-23T01:47:43;1.08;;;1.08;;
34775;SDS011;20989;52.566;13.346;2022-07-23T01:50:45;0.80;;;0.80;;
34775;SDS011;20989;52.566;13.346;2022-07-23T01:53:46;1.00;;;1.00;;
34775;SDS011;20989;52.566;13.346;2022-07-23T01:56:47;0.90;;;0.90;;
34775;SDS011;20989;52.566;13.346;2022-07-23T01:59:48;0.88;;;0.88;;
34775;SDS011;20989;52.566;13.346;2022-07-23T02:02:48;1.30;;;1.10;;
34775;SDS011;20989;52.566;13.346;2022-07-23T02:05:49;0.95;;;0.95;;
34775;SDS011;20989;52.566;13.346;2022-07-23T02:08:50;0.80;;;0.80;;
34775;SDS011;20989;52.566;13.346;2022-07-23T02:11:51;0.80;;;0.80;;
34775;SDS011;20989;52.566;13.346;2022-07-23T02:14:51;0.80;;;0.80;;
34775;SDS011;20989;52.566;13.346;2022-07-23T02:17:52;1.05;;;1.00;;
34775;SDS011;20989;52.566;13.346;2022-07-23T02:20:53;0.80;;;0.80;;
34775;SDS011;20989;52.566;13.346;2022-07-23T02:23:53;0.95;;;0.95;;
34775;SDS011;20989;52.566;13.346;2022-07-23T02:26:54;0.70;;;0.70;;
34775;SDS011;20989;52.566;13.346;2022-07-23T02:29:55;0.80;;;0.80;;
34775;SDS011;20989;52.566;13.346;2022-07-23T02:32:55;0.65;;;0.65;;
34775;SDS011;20989;52.566;13.346;2022-07-23T02:35:56;0.60;;;0.60;;
34775;SDS011;20989;52.566;13.346;2022-07-23T02:38:57;0.80;;;0.80;;
34775;SDS011;20989;52.566;13.346;2022-07-23T02:41:58;0.80;;;0.80;;
34775;SDS011;20989;52.566;13.346;2022-07-23T02:44:58;0.70;;;0.70;;
34775;SDS011;20989;52.566;13.346;2022-07-23T02:47:59;1.05;;;1.05;;
34775;SDS011;20989;52.566;13.346;2022-07-23T02:51:00;0.60;;;0.60;;
34775;SDS011;20989;52.566;13.346;2022-07-23T02:54:00;0.75;;;0.75;;
34775;SDS011;20989;52.566;13.346;2022-07-23T02:57:01;0.70;;;0.70;;
34775;SDS011;20989;52.566;13.346;2022-07-23T03:00:02;0.70;;;0.70;;
34775;SDS011;20989;52.566;13.346;2022-07-23T03:03:04;0.75;;;0.75;;
34775;SDS011;20989;52.566;13.346;2022-07-23T03:06:06;1.08;;;0.98;;
34775;SDS011;20989;52.566;13.346;2022-07-23T03:09:07;1.00;;;1.00;;
34775;SDS011;20989;52.566;13.346;2022-07-23T03:12:08;0.80;;;0.80;;
34775;SDS011;20989;52.566;13.346;2022-07-23T03:15:09;0.73;;;0.70;;
34775;SDS011;20989;52.566;13.346;2022-07-23T03:18:09;0.77;;;0.75;;
34775;SDS011;20989;52.566;13.346;2022-07-23T03:21:10;0.98;;;0.85;;
34775;SDS011;20989;52.566;13.346;2022-07-23T03:24:11;0.77;;;0.77;;
34775;SDS011;20989;52.566;13.346;2022-07-23T03:27:12;0.93;;;0.80;;
34775;SDS011;20989;52.566;13.346;2022-07-23T03:30:12;1.42;;;0.70;;
34775;SDS011;20989;52.566;13.346;2022-07-23T03:33:16;1.27;;;0.82;;
34775;SDS011;20989;52.566;13.346;2022-07-23T03:36:18;0.90;;;0.90;;
34775;SDS011;20989;52.566;13.346;2022-07-23T03:39:19;0.80;;;0.80;;
34775;SDS011;20989;52.566;13.346;2022-07-23T03:42:19;1.17;;;1.08;;
34775;SDS011;20989;52.566;13.346;2022-07-23T03:45:20;0.70;;;0.70;;
34775;SDS011;20989;52.566;13.346;2022-07-23T03:48:21;0.80;;;0.75;;
34775;SDS011;20989;52.566;13.346;2022-07-23T03:51:21;0.95;;;0.90;;
34775;SDS011;20989;52.566;13.346;2022-07-23T03:54:22;3.70;;;0.80;;
34775;SDS011;20989;52.566;13.346;2022-07-23T03:57:23;1.02;;;0.93;;
34775;SDS011;20989;52.566;13.346;2022-07-23T04:00:23;0.98;;;0.98;;
34775;SDS011;20989;52.566;13.346;2022-07-23T04:03:24;0.88;;;0.88;;
34775;SDS011;20989;52.566;13.346;2022-07-23T04:06:25;0.90;;;0.80;;
34775;SDS011;20989;52.566;13.346;2022-07-23T04:09:25;0.80;;;0.80;;
34775;SDS011;20989;52.566;13.346;2022-07-23T04:12:26;0.70;;;0.70;;
34775;SDS011;20989;52.566;13.346;2022-07-23T04:15:27;0.77;;;0.77;;
34775;SDS011;20989;52.566;13.346;2022-07-23T04:18:28;0.60;;;0.60;;
34775;SDS011;20989;52.566;13.346;2022-07-23T04:21:28;0.80;;;0.80;;
34775;SDS011;20989;52.566;13.346;2022-07-23T04:24:29;0.70;;;0.70;;
34775;SDS011;20989;52.566;13.346;2022-07-23T04:27:29;0.77;;;0.70;;
34775;SDS011;20989;52.566;13.346;2022-07-23T04:30:33;0.60;;;0.60;;
34775;SDS011;20989;52.566;13.346;2022-07-23T04:33:34;0.65;;;0.65;;
34775;SDS011;20989;52.566;13.346;2022-07-23T04:36:35;0.93;;;0.93;;
34775;SDS011;20989;52.566;13.346;2022-07-23T04:39:35;0.60;;;0.60;;
34775;SDS011;20989;52.566;13.346;2022-07-23T04:42:36;0.90;;;0.90;;
34775;SDS011;20989;52.566;13.346;2022-07-23T04:45:37;0.40;;;0.40;;
34775;SDS011;20989;52.566;13.346;2022-07-23T04:48:38;0.70;;;0.70;;
34775;SDS011;20989;52.566;13.346;2022-07-23T04:51:38;0.80;;;0.80;;
34775;SDS011;20989;52.566;13.346;2022-07-23T04:54:39;0.73;;;0.73;;
34775;SDS011;20989;52.566;13.346;2022-07-23T04:57:40;1.00;;;1.00;;
34775;SDS011;20989;52.566;13.346;2022-07-23T05:00:40;0.80;;;0.80;;
34775;SDS011;20989;52.566;13.346;2022-07-23T05:03:41;0.80;;;0.80;;
34775;SDS011;20989;52.566;13.346;2022-07-23T05:06:42;0.60;;;0.60;;
34775;SDS011;20989;52.566;13.346;2022-07-23T05:09:43;0.73;;;0.73;;
34775;SDS011;20989;52.566;13.346;2022-07-23T05:12:43;0.73;;;0.73;;
34775;SDS011;20989;52.566;13.346;2022-07-23T05:15:44;0.68;;;0.68;;
34775;SDS011;20989;52.566;13.346;2022-07-23T05:18:46;0.60;;;0.60;;
34775;SDS011;20989;52.566;13.346;2022-07-23T05:21:46;0.98;;;0.90;;
34775;SDS011;20989;52.566;13.346;2022-07-23T05:24:47;0.60;;;0.60;;
34775;SDS011;20989;52.566;13.346;2022-07-23T05:27:48;0.60;;;0.60;;
34775;SDS011;20989;52.566;13.346;2022-07-23T05:30:49;0.65;;;0.65;;
34775;SDS011;20989;52.566;13.346;2022-07-23T05:33:50;0.73;;;0.73;;
34775;SDS011;20989;52.566;13.346;2022-07-23T05:36:50;0.57;;;0.57;;
34775;SDS011;20989;52.566;13.346;2022-07-23T05:39:51;0.70;;;0.70;;
34775;SDS011;20989;52.566;13.346;2022-07-23T05:42:52;0.70;;;0.70;;
34775;SDS011;20989;52.566;13.346;2022-07-23T05:45:52;0.70;;;0.70;;
34775;SDS011;20989;52.566;13.346;2022-07-23T05:48:53;0.80;;;0.80;;
34775;SDS011;20989;52.566;13.346;2022-07-23T05:51:54;0.63;;;0.63;;
34775;SDS011;20989;52.566;13.346;2022-07-23T05:54:54;0.70;;;0.70;;
34775;SDS011;20989;52.566;13.346;2022-07-23T05:57:55;0.65;;;0.60;;
34775;SDS011;20989;52.566;13.346;2022-07-23T06:00:56;0.68;;;0.68;;
34775;SDS011;20989;52.566;13.346;2022-07-23T06:03:57;0.65;;;0.65;;
34775;SDS011;20989;52.566;13.346;2022-07-23T06:06:57;0.52;;;0.52;;
34775;SDS011;20989;52.566;13.346;2022-07-23T06:09:58;0.70;;;0.70;;
34775;SDS011;20989;52.566;13.346;2022-07-23T06:12:59;0.63;;;0.63;;
34775;SDS011;20989;52.566;13.346;2022-07-23T06:15:59;0.60;;;0.60;;
34775;SDS011;20989;52.566;13.346;2022-07-23T06:19:00;0.70;;;0.70;;
34775;SDS011;20989;52.566;13.346;2022-07-23T06:22:01;0.90;;;0.90;;
34775;SDS011;20989;52.566;13.346;2022-07-23T06:25:02;0.60;;;0.60;;
34775;SDS011;20989;52.566;13.346;2022-07-23T06:28:03;0.60;;;0.60;;
34775;SDS011;20989;52.566;13.346;2022-07-23T06:31:04;0.73;;;0.73;;
34775;SDS011;20989;52.566;13.346;2022-07-23T06:34:05;0.50;;;0.50;;
34775;SDS011;20989;52.566;13.346;2022-07-23T06:37:05;0.80;;;0.80;;
34775;SDS011;20989;52.566;13.346;2022-07-23T06:40:06;0.55;;;0.55;;
34775;SDS011;20989;52.566;13.346;2022-07-23T06:43:08;0.60;;;0.60;;
34775;SDS011;20989;52.566;13.346;2022-07-23T06:46:08;0.70;;;0.70;;
34775;SDS011;20989;52.566;13.346;2022-07-23T06:49:09;0.60;;;0.60;;
34775;SDS011;20989;52.566;13.346;2022-07-23T06:52:10;0.60;;;0.60;;
34775;SDS011;20989;52.566;13.346;2022-07-23T06:55:11;0.50;;;0.50;;
34775;SDS011;20989;52.566;13.346;2022-07-23T06:58:11;0.68;;;0.68;;
34775;SDS011;20989;52.566;13.346;2022-07-23T07:01:14;0.63;;;0.60;;
34775;SDS011;20989;52.566;13.346;2022-07-23T07:04:15;0.60;;;0.60;;
34775;SDS011;20989;52.566;13.346;2022-07-23T07:07:15;0.40;;;0.40;;
34775;SDS011;20989;52.566;13.346;2022-07-23T07:10:16;0.70;;;0.70;;
34775;SDS011;20989;52.566;13.346;2022-07-23T07:13:17;0.68;;;0.68;;
34775;SDS011;20989;52.566;13.346;2022-07-23T07:16:18;0.50;;;0.50;;
34775;SDS011;20989;52.566;13.346;2022-07-23T07:19:19;0.55;;;0.55;;
34775;SDS011;20989;52.566;13.346;2022-07-23T07:22:19;0.55;;;0.55;;
34775;SDS011;20989;52.566;13.346;2022-07-23T07:25:20;0.73;;;0.60;;
34775;SDS011;20989;52.566;13.346;2022-07-23T07:28:21;0.70;;;0.60;;
34775;SDS011;20989;52.566;13.346;2022-07-23T07:31:21;0.60;;;0.60;;
34775;SDS011;20989;52.566;13.346;2022-07-23T07:34:22;0.68;;;0.68;;
34775;SDS011;20989;52.566;13.346;2022-07-23T07:37:23;0.60;;;0.60;;
34775;SDS011;20989;52.566;13.346;2022-07-23T07:40:24;0.88;;;0.75;;
34775;SDS011;20989;52.566;13.346;2022-07-23T07:43:24;0.63;;;0.50;;
34775;SDS011;20989;52.566;13.346;2022-07-23T07:46:25;0.68;;;0.68;;
34775;SDS011;20989;52.566;13.346;2022-07-23T07:49:27;0.40;;;0.40;;
34775;SDS011;20989;52.566;13.346;2022-07-23T07:52:28;0.60;;;0.60;;
34775;SDS011;20989;52.566;13.346;2022-07-23T07:55:28;0.68;;;0.50;;
34775;SDS011;20989;52.566;13.346;2022-07-23T07:58:29;0.43;;;0.43;;
34775;SDS011;20989;52.566;13.346;2022-07-23T08:01:30;0.50;;;0.50;;
34775;SDS011;20989;52.566;13.346;2022-07-23T08:04:31;0.52;;;0.52;;
34775;SDS011;20989;52.566;13.346;2022-07-23T08:07:32;0.88;;;0.70;;
34775;SDS011;20989;52.566;13.346;2022-07-23T08:10:33;0.50;;;0.50;;
34775;SDS011;20989;52.566;13.346;2022-07-23T08:13:33;0.70;;;0.70;;
34775;SDS011;20989;52.566;13.346;2022-07-23T08:16:34;0.55;;;0.55;;
34775;SDS011;20989;52.566;13.346;2022-07-23T08:19:35;0.60;;;0.60;;
34775;SDS011;20989;52.566;13.346;2022-07-23T08:22:42;0.98;;;0.88;;
34775;SDS011;20989;52.566;13.346;2022-07-23T08:25:51;0.65;;;0.60;;
34775;SDS011;20989;52.566;13.346;2022-07-23T08:28:51;0.63;;;0.63;;
34775;SDS011;20989;52.566;13.346;2022-07-23T08:31:52;0.57;;;0.57;;
34775;SDS011;20989;52.566;13.346;2022-07-23T08:34:53;0.63;;;0.63;;
34775;SDS011;20989;52.566;13.346;2022-07-23T08:37:54;0.50;;;0.50;;
34775;SDS011;20989;52.566;13.346;2022-07-23T08:40:55;0.70;;;0.50;;
34775;SDS011;20989;52.566;13.346;2022-07-23T08:43:59;0.60;;;0.60;;
34775;SDS011;20989;52.566;13.346;2022-07-23T08:47:01;0.73;;;0.60;;
34775;SDS011;20989;52.566;13.346;2022-07-23T08:50:02;0.57;;;0.57;;
34775;SDS011;20989;52.566;13.346;2022-07-23T08:53:05;0.50;;;0.50;;
34775;SDS011;20989;52.566;13.346;2022-07-23T08:56:06;0.65;;;0.65;;
34775;SDS011;20989;52.566;13.346;2022-07-23T08:59:08;0.60;;;0.60;;
34775;SDS011;20989;52.566;13.346;2022-07-23T09:02:08;0.80;;;0.80;;
34775;SDS011;20989;52.566;13.346;2022-07-23T09:05:09;0.63;;;0.50;;
34775;SDS011;20989;52.566;13.346;2022-07-23T09:08:13;0.80;;;0.80;;
34775;SDS011;20989;52.566;13.346;2022-07-23T09:11:16;0.60;;;0.60;;
34775;SDS011;20989;52.566;13.346;2022-07-23T09:14:18;0.77;;;0.65;;
34775;SDS011;20989;52.566;13.346;2022-07-23T09:17:48;0.57;;;0.57;;
34775;SDS011;20989;52.566;13.346;2022-07-23T09:20:49;0.65;;;0.65;;
34775;SDS011;20989;52.566;13.346;2022-07-23T09:26:57;0.75;;;0.70;;
34775;SDS011;20989;52.566;13.346;2022-07-23T09:29:58;0.50;;;0.50;;
34775;SDS011;20989;52.566;13.346;2022-07-23T09:33:06;0.55;;;0.50;;
34775;SDS011;20989;52.566;13.346;2022-07-23T09:36:08;0.50;;;0.50;;
34775;SDS011;20989;52.566;13.346;2022-07-23T09:39:09;0.60;;;0.60;;
34775;SDS011;20989;52.566;13.346;2022-07-23T09:42:14;0.60;;;0.60;;
34775;SDS011;20989;52.566;13.346;2022-07-23T09:45:15;0.60;;;0.60;;
34775;SDS011;20989;52.566;13.346;2022-07-23T09:48:16;1.52;;;0.70;;
34775;SDS011;20989;52.566;13.346;2022-07-23T09:51:17;0.82;;;0.60;;
34775;SDS011;20989;52.566;13.346;2022-07-23T09:54:29;0.60;;;0.60;;
34775;SDS011;20989;52.566;13.346;2022-07-23T09:57:35;0.60;;;0.60;;
34775;SDS011;20989;52.566;13.346;2022-07-23T10:00:35;4.90;;;1.50;;
34775;SDS011;20989;52.566;13.346;2022-07-23T10:03:37;4.65;;;2.50;;
34775;SDS011;20989;52.566;13.346;2022-07-23T10:06:39;9.38;;;4.47;;
34775;SDS011;20989;52.566;13.346;2022-07-23T10:09:40;11.27;;;5.13;;
34775;SDS011;20989;52.566;13.346;2022-07-23T10:12:43;7.03;;;3.05;;
34775;SDS011;20989;52.566;13.346;2022-07-23T10:15:53;4.95;;;2.80;;
34775;SDS011;20989;52.566;13.346;2022-07-23T10:18:54;4.03;;;3.35;;
34775;SDS011;20989;52.566;13.346;2022-07-23T10:21:57;3.67;;;3.13;;
34775;SDS011;20989;52.566;13.346;2022-07-23T10:31:50;3.53;;;2.85;;
34775;SDS011;20989;52.566;13.346;2022-07-23T10:35:08;10.35;;;3.70;;
34775;SDS011;20989;52.566;13.346;2022-07-23T10:41:41;7.70;;;3.67;;
34775;SDS011;20989;52.566;13.346;2022-07-23T10:44:43;3.08;;;2.78;;
34775;SDS011;20989;52.566;13.346;2022-07-23T10:47:46;7.50;;;3.75;;
34775;SDS011;20989;52.566;13.346;2022-07-23T10:51:09;4.05;;;2.83;;
34775;SDS011;20989;52.566;13.346;2022-07-23T10:54:22;5.03;;;2.90;;
34775;SDS011;20989;52.566;13.346;2022-07-23T10:57:24;4.70;;;2.42;;
34775;SDS011;20989;52.566;13.346;2022-07-23T11:00:26;8.82;;;2.90;;
34775;SDS011;20989;52.566;13.346;2022-07-23T11:03:33;6.25;;;3.22;;
34775;SDS011;20989;52.566;13.346;2022-07-23T11:09:51;6.35;;;3.25;;
34775;SDS011;20989;52.566;13.346;2022-07-23T11:12:53;4.22;;;2.50;;
34775;SDS011;20989;52.566;13.346;2022-07-23T11:19:03;6.40;;;2.80;;
34775;SDS011;20989;52.566;13.346;2022-07-23T11:22:05;6.18;;;3.15;;
34775;SDS011;20989;52.566;13.346;2022-07-23T11:25:06;8.82;;;3.53;;
34775;SDS011;20989;52.566;13.346;2022-07-23T11:28:10;5.15;;;3.22;;
34775;SDS011;20989;52.566;13.346;2022-07-23T11:31:17;5.95;;;3.83;;
34775;SDS011;20989;52.566;13.346;2022-07-23T11:37:46;8.68;;;3.20;;
34775;SDS011;20989;52.566;13.346;2022-07-23T11:40:52;9.63;;;4.47;;
34775;SDS011;20989;52.566;13.346;2022-07-23T11:43:54;5.30;;;4.10;;
34775;SDS011;20989;52.566;13.346;2022-07-23T11:46:59;7.53;;;4.00;;
34775;SDS011;20989;52.566;13.346;2022-07-23T11:50:10;5.13;;;3.65;;
34775;SDS011;20989;52.566;13.346;2022-07-23T11:53:10;12.23;;;3.85;;
34775;SDS011;20989;52.566;13.346;2022-07-23T11:56:11;5.82;;;3.10;;
34775;SDS011;20989;52.566;13.346;2022-07-23T11:59:12;4.32;;;2.90;;
34775;SDS011;20989;52.566;13.346;2022-07-23T12:02:13;4.25;;;2.80;;
34775;SDS011;20989;52.566;13.346;2022-07-23T12:05:15;5.85;;;2.92;;
34775;SDS011;20989;52.566;13.346;2022-07-23T12:08:20;4.80;;;2.90;;
34775;SDS011;20989;52.566;13.346;2022-07-23T12:11:21;7.95;;;4.10;;
34775;SDS011;20989;52.566;13.346;2022-07-23T12:14:22;8.68;;;3.70;;
34775;SDS011;20989;52.566;13.346;2022-07-23T12:17:30;30.05;;;11.38;;
34775;SDS011;20989;52.566;13.346;2022-07-23T12:20:33;9.55;;;3.47;;
34775;SDS011;20989;52.566;13.346;2022-07-23T12:23:36;10.40;;;3.90;;
34775;SDS011;20989;52.566;13.346;2022-07-23T12:26:38;5.13;;;2.90;;
34775;SDS011;20989;52.566;13.346;2022-07-23T12:29:38;6.90;;;3.47;;
34775;SDS011;20989;52.566;13.346;2022-07-23T12:32:42;5.75;;;2.80;;
34775;SDS011;20989;52.566;13.346;2022-07-23T12:35:45;5.95;;;3.47;;
34775;SDS011;20989;52.566;13.346;2022-07-23T12:38:48;4.93;;;2.67;;
34775;SDS011;20989;52.566;13.346;2022-07-23T12:41:52;6.28;;;2.78;;
34775;SDS011;20989;52.566;13.346;2022-07-23T12:45:03;4.60;;;2.55;;
34775;SDS011;20989;52.566;13.346;2022-07-23T12:48:14;8.00;;;2.75;;
34775;SDS011;20989;52.566;13.346;2022-07-23T12:51:21;5.40;;;2.28;;
34775;SDS011;20989;52.566;13.346;2022-07-23T12:54:32;3.22;;;2.20;;
34775;SDS011;20989;52.566;13.346;2022-07-23T12:57:45;5.30;;;2.80;;
34775;SDS011;20989;52.566;13.346;2022-07-23T13:03:59;4.22;;;2.45;;
34775;SDS011;20989;52.566;13.346;2022-07-23T13:07:11;4.57;;;2.45;;
34775;SDS011;20989;52.566;13.346;2022-07-23T13:10:12;3.22;;;2.42;;
34775;SDS011;20989;52.566;13.346;2022-07-23T13:13:12;3.15;;;2.20;;
34775;SDS011;20989;52.566;13.346;2022-07-23T13:16:13;3.45;;;2.45;;
34775;SDS011;20989;52.566;13.346;2022-07-23T13:19:15;5.22;;;2.50;;
34775;SDS011;20989;52.566;13.346;2022-07-23T13:22:16;3.30;;;2.10;;
34775;SDS011;20989;52.566;13.346;2022-07-23T13:25:17;3.08;;;2.25;;
34775;SDS011;20989;52.566;13.346;2022-07-23T13:28:18;2.42;;;2.20;;
34775;SDS011;20989;52.566;13.346;2022-07-23T13:31:20;2.08;;;1.90;;
34775;SDS011;20989;52.566;13.346;2022-07-23T13:34:21;4.20;;;2.08;;
34775;SDS011;20989;52.566;13.346;2022-07-23T13:37:22;4.03;;;2.22;;
34775;SDS011;20989;52.566;13.346;2022-07-23T13:40:23;2.58;;;1.83;;
34775;SDS011;20989;52.566;13.346;2022-07-23T13:43:24;2.08;;;1.98;;
34775;SDS011;20989;52.566;13.346;2022-07-23T13:46:25;2.03;;;1.90;;
34775;SDS011;20989;52.566;13.346;2022-07-23T13:49:26;4.40;;;2.10;;
34775;SDS011;20989;52.566;13.346;2022-07-23T13:52:26;2.65;;;1.77;;
34775;SDS011;20989;52.566;13.346;2022-07-23T13:55:27;1.70;;;1.60;;
34775;SDS011;20989;52.566;13.346;2022-07-23T13:58:28;2.30;;;1.77;;
34775;SDS011;20989;52.566;13.346;2022-07-23T14:01:29;2.25;;;2.00;;
34775;SDS011;20989;52.566;13.346;2022-07-23T14:04:29;9.48;;;2.10;;
34775;SDS011;20989;52.566;13.346;2022-07-23T14:07:30;3.33;;;1.77;;
34775;SDS011;20989;52.566;13.346;2022-07-23T14:10:31;4.50;;;2.13;;
34775;SDS011;20989;52.566;13.346;2022-07-23T14:13:32;6.00;;;1.80;;
34775;SDS011;20989;52.566;13.346;2022-07-23T14:16:32;5.53;;;1.73;;
34775;SDS011;20989;52.566;13.346;2022-07-23T14:19:33;4.07;;;1.90;;
34775;SDS011;20989;52.566;13.346;2022-07-23T14:22:34;5.70;;;2.08;;
34775;SDS011;20989;52.566;13.346;2022-07-23T14:25:35;2.70;;;1.58;;
34775;SDS011;20989;52.566;13.346;2022-07-23T14:28:36;2.55;;;2.05;;
34775;SDS011;20989;52.566;13.346;2022-07-23T14:31:37;1.75;;;1.60;;
34775;SDS011;20989;52.566;13.346;2022-07-23T14:34:37;3.78;;;1.83;;
34775;SDS011;20989;52.566;13.346;2022-07-23T14:37:39;3.67;;;1.80;;
34775;SDS011;20989;52.566;13.346;2022-07-23T14:40:40;2.08;;;1.60;;
34775;SDS011;20989;52.566;13.346;2022-07-23T14:43:41;2.17;;;1.98;;
34775;SDS011;20989;52.566;13.346;2022-07-23T14:46:42;3.30;;;1.42;;
34775;SDS011;20989;52.566;13.346;2022-07-23T14:49:43;7.00;;;1.85;;
34775;SDS011;20989;52.566;13.346;2022-07-23T14:52:44;5.60;;;1.23;;
34775;SDS011;20989;52.566;13.346;2022-07-23T14:55:45;1.55;;;1.45;;
34775;SDS011;20989;52.566;13.346;2022-07-23T14:58:46;6.50;;;1.70;;
34775;SDS011;20989;52.566;13.346;2022-07-23T15:01:47;1.92;;;1.58;;
34775;SDS011;20989;52.566;13.346;2022-07-23T15:04:48;1.38;;;1.27;;
34775;SDS011;20989;52.566;13.346;2022-07-23T15:07:48;1.50;;;1.40;;
34775;SDS011;20989;52.566;13.346;2022-07-23T15:10:49;2.25;;;1.20;;
34775;SDS011;20989;52.566;13.346;2022-07-23T15:13:50;3.05;;;1.27;;
34775;SDS011;20989;52.566;13.346;2022-07-23T15:16:51;1.20;;;0.98;;
34775;SDS011;20989;52.566;13.346;2022-07-23T15:19:52;1.30;;;1.20;;
34775;SDS011;20989;52.566;13.346;2022-07-23T15:22:53;1.40;;;1.30;;
34775;SDS011;20989;52.566;13.346;2022-07-23T15:25:54;1.83;;;1.40;;
34775;SDS011;20989;52.566;13.346;2022-07-23T15:28:56;1.23;;;1.13;;
34775;SDS011;20989;52.566;13.346;2022-07-23T15:31:58;4.10;;;1.60;;
34775;SDS011;20989;52.566;13.346;2022-07-23T15:34:59;1.58;;;1.33;;
34775;SDS011;20989;52.566;13.346;2022-07-23T15:38:01;1.10;;;1.10;;
34775;SDS011;20989;52.566;13.346;2022-07-23T15:41:02;2.15;;;1.35;;
34775;SDS011;20989;52.566;13.346;2022-07-23T15:44:04;1.33;;;1.23;;
34775;SDS011;20989;52.566;13.346;2022-07-23T15:47:05;2.00;;;1.05;;
34775;SDS011;20989;52.566;13.346;2022-07-23T15:50:12;1.60;;;1.02;;
34775;SDS011;20989;52.566;13.346;2022-07-23T15:53:12;0.93;;;0.90;;
34775;SDS011;20989;52.566;13.346;2022-07-23T15:56:13;1.20;;;1.10;;
34775;SDS011;20989;52.566;13.346;2022-07-23T15:59:14;1.80;;;1.17;;
34775;SDS011;20989;52.566;13.346;2022-07-23T16:02:15;2.10;;;1.00;;
34775;SDS011;20989;52.566;13.346;2022-07-23T16:05:16;1.90;;;1.00;;
34775;SDS011;20989;52.566;13.346;2022-07-23T16:08:18;1.10;;;1.00;;
34775;SDS011;20989;52.566;13.346;2022-07-23T16:11:19;1.10;;;0.80;;
34775;SDS011;20989;52.566;13.346;2022-07-23T16:14:19;3.25;;;1.25;;
34775;SDS011;20989;52.566;13.346;2022-07-23T16:17:21;14.95;;;1.55;;
34775;SDS011;20989;52.566;13.346;2022-07-23T16:20:21;5.22;;;1.50;;
34775;SDS011;20989;52.566;13.346;2022-07-23T16:23:22;2.42;;;1.00;;
34775;SDS011;20989;52.566;13.346;2022-07-23T16:26:23;1.98;;;1.35;;
34775;SDS011;20989;52.566;13.346;2022-07-23T16:29:24;6.00;;;1.30;;
34775;SDS011;20989;52.566;13.346;2022-07-23T16:32:25;4.88;;;1.50;;
34775;SDS011;20989;52.566;13.346;2022-07-23T16:35:27;4.72;;;1.38;;
34775;SDS011;20989;52.566;13.346;2022-07-23T16:38:28;1.73;;;1.17;;
34775;SDS011;20989;52.566;13.346;2022-07-23T16:41:29;1.48;;;1.05;;
34775;SDS011;20989;52.566;13.346;2022-07-23T16:44:30;3.03;;;1.30;;
34775;SDS011;20989;52.566;13.346;2022-07-23T16:47:31;2.80;;;1.17;;
34775;SDS011;20989;52.566;13.346;2022-07-23T16:50:31;7.72;;;1.10;;
34775;SDS011;20989;52.566;13.346;2022-07-23T16:53:32;9.25;;;1.52;;
34775;SDS011;20989;52.566;13.346;2022-07-23T16:56:33;8.38;;;1.27;;
34775;SDS011;20989;52.566;13.346;2022-07-23T16:59:35;4.13;;;1.08;;
34775;SDS011;20989;52.566;13.346;2022-07-23T17:02:36;5.53;;;1.63;;
34775;SDS011;20989;52.566;13.346;2022-07-23T17:05:37;6.28;;;1.10;;
34775;SDS011;20989;52.566;13.346;2022-07-23T17:08:38;9.90;;;2.28;;
34775;SDS011;20989;52.566;13.346;2022-07-23T17:11:39;6.60;;;2.30;;
34775;SDS011;20989;52.566;13.346;2022-07-23T17:14:41;10.80;;;2.75;;
34775;SDS011;20989;52.566;13.346;2022-07-23T17:17:41;6.00;;;2.67;;
34775;SDS011;20989;52.566;13.346;2022-07-23T17:20:42;6.85;;;3.40;;
34775;SDS011;20989;52.566;13.346;2022-07-23T17:23:43;5.55;;;2.40;;
34775;SDS011;20989;52.566;13.346;2022-07-23T17:26:44;5.25;;;2.45;;
34775;SDS011;20989;52.566;13.346;2022-07-23T17:29:45;4.88;;;2.70;;
34775;SDS011;20989;52.566;13.346;2022-07-23T17:32:46;4.57;;;2.08;;
34775;SDS011;20989;52.566;13.346;2022-07-23T17:35:47;24.92;;;3.40;;
34775;SDS011;20989;52.566;13.346;2022-07-23T17:38:53;62.30;;;5.50;;
34775;SDS011;20989;52.566;13.346;2022-07-23T17:41:53;76.57;;;6.47;;
34775;SDS011;20989;52.566;13.346;2022-07-23T17:44:54;13.55;;;2.78;;
34775;SDS011;20989;52.566;13.346;2022-07-23T17:47:55;21.05;;;3.00;;
34775;SDS011;20989;52.566;13.346;2022-07-23T17:50:55;31.27;;;3.67;;
34775;SDS011;20989;52.566;13.346;2022-07-23T17:53:56;36.53;;;4.13;;
34775;SDS011;20989;52.566;13.346;2022-07-23T17:56:57;16.08;;;3.17;;
34775;SDS011;20989;52.566;13.346;2022-07-23T17:59:58;33.70;;;4.18;;
34775;SDS011;20989;52.566;13.346;2022-07-23T18:02:59;19.48;;;3.42;;
34775;SDS011;20989;52.566;13.346;2022-07-23T18:06:00;21.42;;;3.38;;
34775;SDS011;20989;52.566;13.346;2022-07-23T18:09:01;22.70;;;3.42;;
34775;SDS011;20989;52.566;13.346;2022-07-23T18:12:03;37.28;;;3.85;;
34775;SDS011;20989;52.566;13.346;2022-07-23T18:15:05;14.52;;;2.60;;
34775;SDS011;20989;52.566;13.346;2022-07-23T18:18:06;22.23;;;2.97;;
34775;SDS011;20989;52.566;13.346;2022-07-23T18:21:07;25.20;;;2.65;;
34775;SDS011;20989;52.566;13.346;2022-07-23T18:24:08;11.50;;;2.53;;
34775;SDS011;20989;52.566;13.346;2022-07-23T18:27:08;15.02;;;3.00;;